createdAt,value
2023-04-06T00:01:09.615Z,6.00
2023-04-06T00:03:36.817Z,6.35
2023-04-06T00:06:04.639Z,6.25
2023-04-06T00:08:31.683Z,6.35
2023-04-06T00:10:58.783Z,6.28
2023-04-06T00:13:26.349Z,5.95
2023-04-06T00:15:53.711Z,6.97
2023-04-06T00:18:20.768Z,6.45
2023-04-06T00:20:47.762Z,7.05
2023-04-06T00:23:15.122Z,6.55
2023-04-06T00:25:42.432Z,6.45
2023-04-06T00:28:09.603Z,6.05
2023-04-06T00:30:36.910Z,6.28
2023-04-06T00:33:04.366Z,7.32
2023-04-06T00:35:31.759Z,6.57
2023-04-06T00:37:59.084Z,6.43
2023-04-06T00:40:28.784Z,6.45
2023-04-06T00:42:56.380Z,5.90
2023-04-06T00:45:23.498Z,6.75
2023-04-06T00:47:50.625Z,6.07
2023-04-06T00:50:18.612Z,6.18
2023-04-06T00:52:45.803Z,5.90
2023-04-06T00:55:13.461Z,5.93
2023-04-06T00:57:43.182Z,5.68
2023-04-06T01:00:11.136Z,6.32
2023-04-06T01:02:38.905Z,5.72
2023-04-06T01:05:06.825Z,6.15
2023-04-06T01:07:45.026Z,6.53
2023-04-06T01:10:29.278Z,6.47
2023-04-06T01:13:02.940Z,6.95
2023-04-06T01:15:53.088Z,7.38
2023-04-06T01:18:39.031Z,5.95
2023-04-06T01:21:26.885Z,6.72
2023-04-06T01:24:07.232Z,7.13
2023-04-06T01:26:46.762Z,6.47
2023-04-06T01:29:13.931Z,6.13
2023-04-06T01:31:41.365Z,6.18
2023-04-06T01:34:08.528Z,6.90
2023-04-06T01:36:35.608Z,6.28
2023-04-06T01:39:17.695Z,6.63
2023-04-06T01:41:44.918Z,6.40
2023-04-06T01:44:12.321Z,6.63
2023-04-06T01:46:40.929Z,6.25
2023-04-06T01:49:09.247Z,7.22
2023-04-06T01:51:40.465Z,6.93
2023-04-06T01:54:11.484Z,6.65
2023-04-06T01:57:01.688Z,6.22
2023-04-06T01:59:35.509Z,6.90
2023-04-06T02:02:07.930Z,5.80
2023-04-06T02:04:36.340Z,6.55
2023-04-06T02:07:11.284Z,6.68
2023-04-06T02:09:38.860Z,6.88
2023-04-06T02:12:09.956Z,6.25
2023-04-06T02:14:37.006Z,6.15
2023-04-06T02:17:05.468Z,6.70
2023-04-06T02:19:32.498Z,6.53
2023-04-06T02:21:59.593Z,6.50
2023-04-06T02:24:26.511Z,6.28
2023-04-06T02:26:53.670Z,6.35
2023-04-06T02:29:21.423Z,5.90
2023-04-06T02:31:49.291Z,6.25
2023-04-06T02:34:18.744Z,6.47
2023-04-06T02:36:50.187Z,6.60
2023-04-06T02:39:18.601Z,5.82
2023-04-06T02:41:45.672Z,6.28
2023-04-06T02:44:16.233Z,5.85
2023-04-06T02:46:44.964Z,6.15
2023-04-06T02:49:12.065Z,5.47
2023-04-06T02:51:39.168Z,5.03
2023-04-06T02:54:19.089Z,5.22
2023-04-06T02:56:46.474Z,5.43
2023-04-06T02:59:14.469Z,6.32
2023-04-06T03:01:47.553Z,5.13
2023-04-06T03:04:14.697Z,5.20
2023-04-06T03:06:41.673Z,5.07
2023-04-06T03:09:20.812Z,4.85
2023-04-06T03:11:48.126Z,4.60
2023-04-06T03:14:18.329Z,4.63
2023-04-06T03:16:45.394Z,4.50
2023-04-06T03:19:16.284Z,4.53
2023-04-06T03:21:43.970Z,4.57
2023-04-06T03:24:11.204Z,4.47
2023-04-06T03:26:38.278Z,5.05
2023-04-06T03:29:07.953Z,5.10
2023-04-06T03:31:35.927Z,4.53
2023-04-06T03:34:11.096Z,4.72
2023-04-06T03:36:38.170Z,5.60
2023-04-06T03:39:06.166Z,4.53
2023-04-06T03:41:36.260Z,4.85
2023-04-06T03:44:10.672Z,4.95
2023-04-06T03:46:38.341Z,4.63
2023-04-06T03:49:06.091Z,4.55
2023-04-06T03:51:33.419Z,5.00
2023-04-06T03:54:00.470Z,4.43
2023-04-06T03:56:27.774Z,5.45
2023-04-06T03:58:55.310Z,5.63
2023-04-06T04:01:22.697Z,4.97
2023-04-06T04:03:51.793Z,4.82
2023-04-06T04:06:19.232Z,5.28
2023-04-06T04:08:46.798Z,4.93
2023-04-06T04:11:14.184Z,5.50
2023-04-06T04:13:41.323Z,5.30
2023-04-06T04:16:09.691Z,5.38
2023-04-06T04:18:37.558Z,5.18
2023-04-06T04:21:04.844Z,5.25
2023-04-06T04:23:32.014Z,4.95
2023-04-06T04:25:59.209Z,5.65
2023-04-06T04:28:26.104Z,5.05
2023-04-06T04:30:55.740Z,5.32
2023-04-06T04:33:24.241Z,5.70
2023-04-06T04:35:53.962Z,5.60
2023-04-06T04:38:23.681Z,6.25
2023-04-06T04:40:53.792Z,5.60
2023-04-06T04:43:21.889Z,5.43
2023-04-06T04:45:48.858Z,5.55
2023-04-06T04:48:35.245Z,5.90
2023-04-06T04:51:06.357Z,6.20
2023-04-06T04:53:47.349Z,5.90
2023-04-06T04:56:20.854Z,6.43
2023-04-06T04:58:51.801Z,5.68
2023-04-06T05:01:19.133Z,5.70
2023-04-06T05:03:47.297Z,6.25
2023-04-06T05:06:16.144Z,5.78
2023-04-06T05:08:44.169Z,6.35
2023-04-06T05:11:11.258Z,6.03
2023-04-06T05:13:43.559Z,5.85
2023-04-06T05:16:17.078Z,6.10
2023-04-06T05:18:44.812Z,5.78
2023-04-06T05:21:12.885Z,6.28
2023-04-06T05:24:09.447Z,6.05
2023-04-06T05:26:38.821Z,6.45
2023-04-06T05:29:13.188Z,6.22
2023-04-06T05:31:41.424Z,5.88
2023-04-06T05:34:10.697Z,6.32
2023-04-06T05:36:38.163Z,6.10
2023-04-06T05:39:14.370Z,5.90
2023-04-06T05:41:50.029Z,6.38
2023-04-06T05:44:24.391Z,6.07
2023-04-06T05:47:01.318Z,6.35
2023-04-06T05:49:28.505Z,6.70
2023-04-06T05:51:56.264Z,6.55
2023-04-06T05:54:23.636Z,5.43
2023-04-06T05:56:52.246Z,5.35
2023-04-06T05:59:19.588Z,5.60
2023-04-06T06:01:48.618Z,5.63
2023-04-06T06:04:16.466Z,5.63
2023-04-06T06:06:48.876Z,5.95
2023-04-06T06:09:24.233Z,5.65
2023-04-06T06:12:05.662Z,5.57
2023-04-06T06:14:32.807Z,5.70
2023-04-06T06:16:59.697Z,5.25
2023-04-06T06:19:27.884Z,5.50
2023-04-06T06:21:59.511Z,5.90
2023-04-06T06:24:26.714Z,5.85
2023-04-06T06:26:53.646Z,5.20
2023-04-06T06:29:24.881Z,5.63
2023-04-06T06:31:51.885Z,5.65
2023-04-06T06:34:18.934Z,5.43
2023-04-06T06:36:47.718Z,5.30
2023-04-06T06:39:16.464Z,5.05
2023-04-06T06:41:43.529Z,5.28
2023-04-06T06:44:10.878Z,5.72
2023-04-06T06:46:38.702Z,5.15
2023-04-06T06:49:06.806Z,5.43
2023-04-06T06:51:33.842Z,5.47
2023-04-06T06:54:02.082Z,4.78
2023-04-06T06:56:29.017Z,5.35
2023-04-06T06:58:56.378Z,4.60
2023-04-06T07:01:23.853Z,4.70
2023-04-06T07:03:51.022Z,4.70
2023-04-06T07:06:18.033Z,4.65
2023-04-06T07:08:44.986Z,4.55
2023-04-06T07:11:11.931Z,6.40
2023-04-06T07:13:38.909Z,7.10
2023-04-06T07:16:06.296Z,5.90
2023-04-06T07:18:36.053Z,5.70
2023-04-06T07:21:05.002Z,5.38
2023-04-06T07:26:12.836Z,4.03
2023-04-06T07:28:39.839Z,4.30
2023-04-06T07:31:06.926Z,3.58
2023-04-06T07:33:34.589Z,3.53
2023-04-06T07:36:02.641Z,3.28
2023-04-06T07:38:29.738Z,3.22
2023-04-06T07:40:57.020Z,3.13
2023-04-06T07:43:24.939Z,3.53
2023-04-06T07:45:52.877Z,3.65
2023-04-06T07:48:20.532Z,3.30
2023-04-06T07:53:28.328Z,3.17
2023-04-06T07:55:56.683Z,3.30
2023-04-06T07:58:23.613Z,2.92
2023-04-06T08:00:50.843Z,3.05
2023-04-06T08:03:18.149Z,3.45
2023-04-06T08:05:45.279Z,3.30
2023-04-06T08:08:12.319Z,3.33
2023-04-06T08:10:39.158Z,3.15
2023-04-06T08:13:06.463Z,3.00
2023-04-06T08:15:33.469Z,2.42
2023-04-06T08:18:00.892Z,2.22
2023-04-06T08:20:27.963Z,2.20
2023-04-06T08:22:55.219Z,2.58
2023-04-06T08:25:22.237Z,3.03
2023-04-06T08:27:49.119Z,3.10
2023-04-06T08:30:16.759Z,2.80
2023-04-06T08:32:43.717Z,2.67
2023-04-06T08:35:10.770Z,2.47
2023-04-06T08:37:37.692Z,2.60
2023-04-06T08:40:05.554Z,1.83
2023-04-06T08:42:44.687Z,2.00
2023-04-06T08:45:11.820Z,1.55
2023-04-06T08:47:38.863Z,2.10
2023-04-06T08:50:07.026Z,2.25
2023-04-06T08:52:37.211Z,2.08
2023-04-06T08:55:04.912Z,1.83
2023-04-06T08:57:33.060Z,1.90
2023-04-06T09:00:02.072Z,1.85
2023-04-06T09:02:29.455Z,1.83
2023-04-06T09:04:56.652Z,2.10
2023-04-06T09:07:24.880Z,1.52
2023-04-06T09:09:52.726Z,1.55
2023-04-06T09:12:28.205Z,1.77
2023-04-06T09:14:56.955Z,2.20
2023-04-06T09:17:30.860Z,1.73
2023-04-06T09:19:58.235Z,1.75
2023-04-06T09:22:26.622Z,1.50
2023-04-06T09:24:55.552Z,1.90
2023-04-06T09:27:37.390Z,2.38
2023-04-06T09:30:17.786Z,1.83
2023-04-06T09:32:50.974Z,1.50
2023-04-06T09:35:21.015Z,1.55
2023-04-06T09:37:50.467Z,1.60
2023-04-06T09:40:22.200Z,1.60
2023-04-06T09:42:52.706Z,1.50
2023-04-06T09:45:19.908Z,1.92
2023-04-06T09:47:47.755Z,1.83
2023-04-06T09:50:17.286Z,1.45
2023-04-06T09:52:50.924Z,1.50
2023-04-06T09:55:34.842Z,1.55
2023-04-06T09:58:15.101Z,1.60
2023-04-06T10:00:50.176Z,1.45
2023-04-06T10:03:43.106Z,1.83
2023-04-06T10:06:14.890Z,1.75
2023-04-06T10:08:43.985Z,1.55
2023-04-06T10:11:14.217Z,1.98
2023-04-06T10:13:41.086Z,1.15
2023-04-06T10:16:09.504Z,1.60
2023-04-06T10:18:37.638Z,1.75
2023-04-06T10:21:15.969Z,1.40
2023-04-06T10:23:49.286Z,1.42
2023-04-06T10:26:21.477Z,2.20
2023-04-06T10:28:50.630Z,1.48
2023-04-06T10:31:29.450Z,1.90
2023-04-06T10:34:01.772Z,1.33
2023-04-06T10:36:37.960Z,1.58
2023-04-06T10:39:07.465Z,1.35
2023-04-06T10:41:44.069Z,1.65
2023-04-06T10:44:23.445Z,1.60
2023-04-06T10:47:01.233Z,1.60
2023-04-06T10:49:28.397Z,1.52
2023-04-06T10:51:57.213Z,1.40
2023-04-06T10:54:27.238Z,1.35
2023-04-06T10:56:54.338Z,1.60
2023-04-06T10:59:23.378Z,2.30
2023-04-06T11:01:50.695Z,1.30
2023-04-06T11:04:19.447Z,1.30
2023-04-06T11:06:51.213Z,1.50
2023-04-06T11:09:29.820Z,1.20
2023-04-06T11:11:57.778Z,2.13
2023-04-06T11:14:24.781Z,1.60
2023-04-06T11:16:52.019Z,1.27
2023-04-06T11:19:19.470Z,1.42
2023-04-06T11:21:48.786Z,1.83
2023-04-06T11:24:25.983Z,1.48
2023-04-06T11:26:57.314Z,1.67
2023-04-06T11:29:27.676Z,1.85
2023-04-06T11:32:00.932Z,1.83
2023-04-06T11:34:31.241Z,1.30
2023-04-06T11:37:07.364Z,2.03
2023-04-06T11:39:41.639Z,1.50
2023-04-06T11:42:09.391Z,1.52
2023-04-06T11:44:43.576Z,1.67
2023-04-06T11:47:11.763Z,1.35
2023-04-06T11:49:42.014Z,1.27
2023-04-06T11:52:24.918Z,1.60
2023-04-06T11:54:54.271Z,1.30
2023-04-06T11:57:26.418Z,1.33
2023-04-06T11:59:54.132Z,1.50
2023-04-06T12:02:21.195Z,1.60
2023-04-06T12:04:48.469Z,1.25
2023-04-06T12:07:16.096Z,1.75
2023-04-06T12:09:44.225Z,2.17
2023-04-06T12:12:11.261Z,1.80
2023-04-06T12:14:38.366Z,1.50
2023-04-06T12:17:05.348Z,1.30
2023-04-06T12:19:32.705Z,1.65
2023-04-06T12:21:59.905Z,1.33
2023-04-06T12:24:27.065Z,1.65
2023-04-06T12:27:06.453Z,1.27
2023-04-06T12:29:36.923Z,1.38
2023-04-06T12:32:03.998Z,1.38
2023-04-06T12:34:31.198Z,1.70
2023-04-06T12:36:58.424Z,1.60
2023-04-06T12:39:26.378Z,1.50
2023-04-06T12:41:54.274Z,1.73
2023-04-06T12:44:21.283Z,1.33
2023-04-06T12:46:48.352Z,1.80
2023-04-06T12:49:17.693Z,1.30
2023-04-06T12:51:44.763Z,1.45
2023-04-06T12:54:12.957Z,1.63
2023-04-06T12:56:40.468Z,1.98
2023-04-06T12:59:07.576Z,1.20
2023-04-06T13:01:34.858Z,1.60
2023-04-06T13:04:02.467Z,1.17
2023-04-06T13:06:30.096Z,1.25
2023-04-06T13:08:57.346Z,1.33
2023-04-06T13:11:28.219Z,1.20
2023-04-06T13:13:55.952Z,1.50
2023-04-06T13:16:23.437Z,1.20
2023-04-06T13:18:51.048Z,1.52
2023-04-06T13:21:18.107Z,1.67
2023-04-06T13:23:45.432Z,1.60
2023-04-06T13:26:14.267Z,1.58
2023-04-06T13:28:42.010Z,1.90
2023-04-06T13:31:10.708Z,1.90
2023-04-06T13:33:38.434Z,12.70
2023-04-06T13:36:08.552Z,8.27
2023-04-06T13:38:35.822Z,3.58
2023-04-06T13:41:02.940Z,2.38
2023-04-06T13:43:30.233Z,1.60
2023-04-06T13:46:00.896Z,1.50
2023-04-06T13:48:28.243Z,2.00
2023-04-06T13:50:55.299Z,1.75
2023-04-06T13:53:22.330Z,1.67
2023-04-06T13:55:56.424Z,2.30
2023-04-06T13:58:24.335Z,2.13
2023-04-06T14:00:52.179Z,1.83
2023-04-06T14:03:19.987Z,1.63
2023-04-06T14:05:47.362Z,1.77
2023-04-06T14:08:14.422Z,1.48
2023-04-06T14:10:43.162Z,1.60
2023-04-06T14:13:10.448Z,2.38
2023-04-06T14:15:37.518Z,1.92
2023-04-06T14:18:04.983Z,1.73
2023-04-06T14:20:35.405Z,1.48
2023-04-06T14:23:03.281Z,1.25
2023-04-06T14:25:35.693Z,1.52
2023-04-06T14:28:03.125Z,1.58
2023-04-06T14:30:32.022Z,1.45
2023-04-06T14:32:59.343Z,1.80
2023-04-06T14:35:29.085Z,1.70
2023-04-06T14:37:59.507Z,1.60
2023-04-06T14:40:26.598Z,1.70
2023-04-06T14:42:53.650Z,1.88
2023-04-06T14:45:22.558Z,2.70
2023-04-06T14:47:49.878Z,1.67
2023-04-06T14:50:17.098Z,1.60
2023-04-06T14:52:44.193Z,1.65
2023-04-06T14:55:11.272Z,1.73
2023-04-06T14:57:38.992Z,1.17
2023-04-06T15:00:08.854Z,1.52
2023-04-06T15:02:36.401Z,1.23
2023-04-06T15:05:04.378Z,1.60
2023-04-06T15:07:31.412Z,1.65
2023-04-06T15:09:58.428Z,1.60
2023-04-06T15:12:25.796Z,1.48
2023-04-06T15:14:52.796Z,1.40
2023-04-06T15:17:19.894Z,1.77
2023-04-06T15:19:46.878Z,1.48
2023-04-06T15:22:14.124Z,1.52
2023-04-06T15:24:41.100Z,1.70
2023-04-06T15:27:07.910Z,1.45
2023-04-06T15:29:35.174Z,1.15
2023-04-06T15:32:02.722Z,1.58
2023-04-06T15:34:33.595Z,1.30
2023-04-06T15:37:04.848Z,2.00
2023-04-06T15:39:33.178Z,2.00
2023-04-06T15:42:01.150Z,2.03
2023-04-06T15:44:28.123Z,1.70
2023-04-06T15:46:55.720Z,1.40
2023-04-06T15:49:22.699Z,1.67
2023-04-06T15:51:51.365Z,1.60
2023-04-06T15:54:20.035Z,1.70
2023-04-06T15:56:48.424Z,1.30
2023-04-06T15:59:16.756Z,1.75
2023-04-06T16:01:44.233Z,1.70
2023-04-06T16:04:12.470Z,1.60
2023-04-06T16:06:39.750Z,1.65
2023-04-06T16:09:06.975Z,1.80
2023-04-06T16:11:34.158Z,1.60
2023-04-06T16:14:01.293Z,1.73
2023-04-06T16:16:28.519Z,1.70
2023-04-06T16:18:55.697Z,1.50
2023-04-06T16:21:22.717Z,1.70
2023-04-06T16:23:49.690Z,1.90
2023-04-06T16:26:21.632Z,2.25
2023-04-06T16:28:49.244Z,2.22
2023-04-06T16:31:25.054Z,2.33
2023-04-06T16:33:57.625Z,1.90
2023-04-06T16:36:30.085Z,1.65
2023-04-06T16:38:58.512Z,1.75
2023-04-06T16:41:27.434Z,1.75
2023-04-06T16:43:57.080Z,1.60
2023-04-06T16:46:35.967Z,1.75
2023-04-06T16:49:05.090Z,5.60
2023-04-06T16:51:32.748Z,5.78
2023-04-06T16:53:59.829Z,2.55
2023-04-06T16:56:27.270Z,1.60
2023-04-06T16:58:54.307Z,1.92
2023-04-06T17:01:27.092Z,2.17
2023-04-06T17:03:56.077Z,1.67
2023-04-06T17:06:23.316Z,1.67
2023-04-06T17:08:51.176Z,2.25
2023-04-06T17:11:23.411Z,1.92
2023-04-06T17:13:52.660Z,2.08
2023-04-06T17:16:20.905Z,1.67
2023-04-06T17:18:48.116Z,1.92
2023-04-06T17:21:16.858Z,1.92
2023-04-06T17:23:44.651Z,1.63
2023-04-06T17:26:11.966Z,2.55
2023-04-06T17:28:39.289Z,2.40
2023-04-06T17:31:11.493Z,2.05
2023-04-06T17:33:40.055Z,2.70
2023-04-06T17:36:12.450Z,2.38
2023-04-06T17:38:43.730Z,2.47
2023-04-06T17:41:12.662Z,2.10
2023-04-06T17:43:39.930Z,2.15
2023-04-06T17:46:07.016Z,2.28
2023-04-06T17:48:34.382Z,2.20
2023-04-06T17:51:01.407Z,3.03
2023-04-06T17:53:31.932Z,2.97
2023-04-06T17:56:03.982Z,3.45
2023-04-06T17:58:31.163Z,3.15
2023-04-06T18:00:58.434Z,3.72
2023-04-06T18:03:25.567Z,4.00
2023-04-06T18:05:52.705Z,3.60
2023-04-06T18:08:19.833Z,3.75
2023-04-06T18:10:48.260Z,4.15
2023-04-06T18:13:15.679Z,4.60
2023-04-06T18:15:42.804Z,3.85
2023-04-06T18:18:09.856Z,4.45
2023-04-06T18:20:41.506Z,11.10
2023-04-06T18:23:08.477Z,4.55
2023-04-06T18:25:41.810Z,3.90
2023-04-06T18:28:09.737Z,4.75
2023-04-06T18:30:37.056Z,4.47
2023-04-06T18:33:04.717Z,4.40
2023-04-06T18:35:31.785Z,3.75
2023-04-06T18:37:58.929Z,3.72
2023-04-06T18:40:37.948Z,4.20
2023-04-06T18:43:08.065Z,4.43
2023-04-06T18:45:38.797Z,4.13
2023-04-06T18:48:06.801Z,4.70
2023-04-06T18:50:34.150Z,4.80
2023-04-06T18:53:01.229Z,4.78
2023-04-06T18:55:28.640Z,4.43
2023-04-06T18:57:55.812Z,5.47
2023-04-06T19:00:22.817Z,4.45
2023-04-06T19:02:49.979Z,4.68
2023-04-06T19:05:17.337Z,5.57
2023-04-06T19:07:49.607Z,6.05
2023-04-06T19:10:16.576Z,5.20
2023-04-06T19:12:43.535Z,4.85
2023-04-06T19:15:11.624Z,4.53
2023-04-06T19:17:38.810Z,5.25
2023-04-06T19:20:07.139Z,4.22
2023-04-06T19:22:37.984Z,4.78
2023-04-06T19:25:06.694Z,6.38
2023-04-06T19:27:34.022Z,6.28
2023-04-06T19:30:01.247Z,4.78
2023-04-06T19:32:30.122Z,5.47
2023-04-06T19:34:59.601Z,5.20
2023-04-06T19:37:26.873Z,5.38
2023-04-06T19:39:54.060Z,5.38
2023-04-06T19:42:21.748Z,5.68
2023-04-06T19:44:48.987Z,5.35
2023-04-06T19:47:16.344Z,5.38
2023-04-06T19:49:43.641Z,6.70
2023-04-06T19:52:11.726Z,6.20
2023-04-06T19:54:40.005Z,6.10
2023-04-06T19:57:07.108Z,6.68
2023-04-06T19:59:37.284Z,6.95
2023-04-06T20:02:04.511Z,6.22
2023-04-06T20:04:31.586Z,6.32
2023-04-06T20:06:58.750Z,6.53
2023-04-06T20:09:25.676Z,6.93
2023-04-06T20:11:54.242Z,7.88
2023-04-06T20:14:22.813Z,8.43
2023-04-06T20:16:50.866Z,9.38
2023-04-06T20:19:18.106Z,9.98
2023-04-06T20:21:45.258Z,10.32
2023-04-06T20:24:12.424Z,8.90
2023-04-06T20:26:39.556Z,9.27
2023-04-06T20:29:06.824Z,10.20
2023-04-06T20:31:34.125Z,9.48
2023-04-06T20:34:01.705Z,9.43
2023-04-06T20:36:32.527Z,8.93
2023-04-06T20:38:59.484Z,8.48
2023-04-06T20:41:26.577Z,8.48
2023-04-06T20:43:53.483Z,8.60
2023-04-06T20:46:20.516Z,8.95
2023-04-06T20:48:47.622Z,9.27
2023-04-06T20:51:23.894Z,8.85
2023-04-06T20:53:52.693Z,8.98
2023-04-06T20:56:21.992Z,8.65
2023-04-06T20:58:49.414Z,9.60
2023-04-06T21:01:17.937Z,8.73
2023-04-06T21:03:45.743Z,9.63
2023-04-06T21:06:12.960Z,9.40
2023-04-06T21:08:39.901Z,10.85
2023-04-06T21:11:07.093Z,10.02
2023-04-06T21:13:35.584Z,9.63
2023-04-06T21:16:03.275Z,9.82
2023-04-06T21:18:31.613Z,8.68
2023-04-06T21:20:58.936Z,8.60
2023-04-06T21:23:26.044Z,8.77
2023-04-06T21:25:56.968Z,10.38
2023-04-06T21:28:25.587Z,9.52
2023-04-06T21:30:56.343Z,9.60
2023-04-06T21:33:23.642Z,9.70
2023-04-06T21:35:50.699Z,9.55
2023-04-06T21:38:17.718Z,9.50
2023-04-06T21:40:44.764Z,8.32
2023-04-06T21:43:11.921Z,8.45
2023-04-06T21:45:40.134Z,8.80
2023-04-06T21:48:07.351Z,8.15
2023-04-06T21:50:39.319Z,8.90
2023-04-06T21:53:06.330Z,8.77
2023-04-06T21:55:33.336Z,8.52
2023-04-06T21:58:00.390Z,8.05
2023-04-06T22:00:27.457Z,8.02
2023-04-06T22:02:54.727Z,8.77
2023-04-06T22:05:21.780Z,8.07
2023-04-06T22:07:48.803Z,9.70
2023-04-06T22:10:15.838Z,8.88
2023-04-06T22:12:42.926Z,9.05
2023-04-06T22:15:13.035Z,8.45
2023-04-06T22:17:40.157Z,8.40
2023-04-06T22:20:07.626Z,8.45
2023-04-06T22:22:34.755Z,8.25
2023-04-06T22:25:01.780Z,9.00
2023-04-06T22:27:28.739Z,9.15
2023-04-06T22:29:56.236Z,7.82
2023-04-06T22:32:23.427Z,9.60
2023-04-06T22:34:50.491Z,7.75
2023-04-06T22:37:17.414Z,8.32
2023-04-06T22:39:44.975Z,9.60
2023-04-06T22:42:11.915Z,8.70
2023-04-06T22:44:39.016Z,8.95
2023-04-06T22:47:05.945Z,8.77
2023-04-06T22:49:33.162Z,8.95
2023-04-06T22:51:59.922Z,8.55
2023-04-06T22:54:26.871Z,9.23
2023-04-06T22:56:53.896Z,8.43
2023-04-06T22:59:21.046Z,8.13
2023-04-06T23:01:48.133Z,7.90
2023-04-06T23:04:16.381Z,8.48
2023-04-06T23:06:44.274Z,9.80
2023-04-06T23:09:11.386Z,9.32
2023-04-06T23:11:38.560Z,8.52
2023-04-06T23:14:05.584Z,8.18
2023-04-06T23:16:32.807Z,8.73
2023-04-06T23:18:59.755Z,8.43
2023-04-06T23:21:26.687Z,8.70
2023-04-06T23:23:53.699Z,9.70
2023-04-06T23:26:21.858Z,9.38
2023-04-06T23:28:49.084Z,10.07
2023-04-06T23:31:16.243Z,8.50
2023-04-06T23:33:43.642Z,9.05
2023-04-06T23:36:11.134Z,9.02
2023-04-06T23:38:38.432Z,9.13
2023-04-06T23:41:05.629Z,8.80
2023-04-06T23:43:32.609Z,10.02
2023-04-06T23:45:59.713Z,8.05
2023-04-06T23:48:26.716Z,8.70
2023-04-06T23:50:53.655Z,9.02
2023-04-06T23:53:20.578Z,8.75
2023-04-06T23:55:47.500Z,8.88
2023-04-06T23:58:14.522Z,8.90
